Time;durP1;ratioP1;P1;durP2;ratioP2;P2;SDS_P1;SDS_P2;PMS_P1;PMS_P2;Temp;Humidity;BMP_temperature;BMP_pressure;BME280_temperature;BME280_humidity;BME280_pressure;Samples;Min_cycle;Max_cycle;Signal;HPM_P1;HPM_P2
2022/06/07 00:00:47;;;;;;;3.67;3.30;;;14.10;99.90;;;;;;4983653;28;20230;-66
2022/06/07 00:03:15;;;;;;;6.03;3.63;;;14.20;99.90;;;;;;4962528;28;20217;-66
2022/06/07 00:05:43;;;;;;;5.47;3.28;;;14.20;99.90;;;;;;4971210;28;20226;-66
2022/06/07 00:08:10;;;;;;;3.72;3.40;;;14.20;99.90;;;;;;4985653;28;20218;-65
2022/06/07 00:10:39;;;;;;;5.68;3.33;;;14.10;99.90;;;;;;4971781;28;20912;-66
2022/06/07 00:13:06;;;;;;;6.85;3.60;;;14.10;99.90;;;;;;4955977;28;20203;-66
2022/06/07 00:15:33;;;;;;;5.45;3.33;;;14.10;99.90;;;;;;4975398;28;20624;-66
2022/06/07 00:18:00;;;;;;;4.03;3.35;;;14.20;99.90;;;;;;4976129;28;20211;-66
2022/06/07 00:20:27;;;;;;;3.92;3.20;;;14.10;99.90;;;;;;4973508;28;20674;-66
2022/06/07 00:22:55;;;;;;;3.83;3.03;;;14.10;99.90;;;;;;4974121;28;20199;-66
2022/06/07 00:25:23;;;;;;;7.35;3.80;;;14.10;99.90;;;;;;4967844;28;20214;-66
2022/06/07 00:27:51;;;;;;;4.07;3.45;;;14.10;99.90;;;;;;4972687;28;20199;-66
2022/06/07 00:30:19;;;;;;;7.28;3.65;;;14.10;99.90;;;;;;4957557;28;20210;-66
2022/06/07 00:32:46;;;;;;;5.82;3.33;;;14.10;99.90;;;;;;4974149;28;20214;-66
2022/06/07 00:35:14;;;;;;;6.57;4.13;;;14.10;99.90;;;;;;4969181;28;20202;-66
2022/06/07 00:37:41;;;;;;;4.15;3.22;;;14.10;99.90;;;;;;4978445;28;20202;-66
2022/06/07 00:40:10;;;;;;;3.75;3.35;;;14.10;99.90;;;;;;4976550;28;20604;-65
2022/06/07 00:42:37;;;;;;;3.97;3.55;;;;;;;;;;4963813;28;20203;-66
2022/06/07 00:45:06;;;;;;;4.43;3.50;;;14.10;99.90;;;;;;4960233;28;21256;-66
2022/06/07 00:47:35;;;;;;;4.60;3.85;;;14.10;99.90;;;;;;4948478;28;20568;-66
2022/06/07 00:50:06;;;;;;;4.75;3.42;;;14.00;99.90;;;;;;4983480;28;20339;-66
2022/06/07 00:52:36;;;;;;;7.93;4.07;;;14.10;99.90;;;;;;4964488;28;20673;-66
2022/06/07 00:55:04;;;;;;;4.95;3.67;;;13.90;99.90;;;;;;4974600;28;20316;-66
2022/06/07 00:57:32;;;;;;;5.97;3.45;;;14.00;99.90;;;;;;4972902;28;20206;-66
2022/06/07 00:59:59;;;;;;;4.93;3.45;;;14.00;99.90;;;;;;4947945;28;21243;-66
2022/06/07 01:02:28;;;;;;;5.35;3.40;;;14.10;99.90;;;;;;4965399;28;20210;-66
2022/06/07 01:04:55;;;;;;;7.28;3.97;;;14.10;99.90;;;;;;4981513;28;20793;-66
2022/06/07 01:12:59;;;;;;;4.28;3.42;;;14.10;99.90;;;;;;4967066;28;20316;-66
2022/06/07 01:15:26;;;;;;;4.28;3.85;;;14.10;99.90;;;;;;4969367;28;20206;-66
2022/06/07 01:17:54;;;;;;;4.60;3.95;;;14.10;99.90;;;;;;4959933;28;20196;-66
2022/06/07 01:20:21;;;;;;;6.70;3.83;;;14.10;99.90;;;;;;4987645;28;20215;-66
2022/06/07 01:22:49;;;;;;;5.00;3.83;;;14.20;99.90;;;;;;4970161;28;20207;-66
2022/06/07 01:25:16;;;;;;;4.90;4.07;;;14.20;99.90;;;;;;4984476;28;20694;-65
2022/06/07 01:27:43;;;;;;;4.68;3.92;;;14.30;99.90;;;;;;4959142;28;20759;-66
2022/06/07 01:30:11;;;;;;;5.20;3.95;;;14.20;99.90;;;;;;4965332;28;20207;-66
2022/06/07 01:32:38;;;;;;;7.60;3.88;;;14.20;99.90;;;;;;4969881;28;20210;-66
2022/06/07 01:35:06;;;;;;;4.05;3.65;;;14.20;99.90;;;;;;4975996;28;20324;-67
2022/06/07 01:37:32;;;;;;;7.30;3.95;;;14.20;99.90;;;;;;4973872;28;20203;-65
2022/06/07 01:42:45;;;;;;;4.53;3.72;;;14.20;99.90;;;;;;4975113;28;20226;-67
2022/06/07 01:45:12;;;;;;;4.82;3.95;;;14.10;99.90;;;;;;4970236;28;20199;-66
2022/06/07 01:47:39;;;;;;;4.97;3.85;;;14.10;99.90;;;;;;4997102;28;20211;-66
2022/06/07 01:50:08;;;;;;;5.53;4.10;;;14.20;99.90;;;;;;4977287;28;20806;-66
2022/06/07 01:52:37;;;;;;;5.80;4.88;;;14.20;99.90;;;;;;4973576;28;20246;-66
2022/06/07 01:55:06;;;;;;;8.00;4.75;;;14.20;99.90;;;;;;4984273;28;20210;-66
2022/06/07 01:57:33;;;;;;;5.60;4.57;;;14.20;99.90;;;;;;4987388;28;20213;-66
2022/06/07 02:00:00;;;;;;;7.75;5.20;;;14.30;99.90;;;;;;4958005;28;20215;-66
2022/06/07 02:02:27;;;;;;;5.68;5.00;;;14.10;99.90;;;;;;4991696;28;20218;-66
2022/06/07 02:04:56;;;;;;;7.43;5.10;;;14.20;99.90;;;;;;4971377;28;20230;-66
2022/06/07 02:07:24;;;;;;;7.95;5.65;;;14.20;99.90;;;;;;4974448;28;20210;-66
2022/06/07 02:09:50;;;;;;;6.22;5.63;;;14.30;99.90;;;;;;4993495;28;20199;-66
2022/06/07 02:12:19;;;;;;;6.43;5.65;;;14.30;99.90;;;;;;4975490;28;20202;-66
2022/06/07 02:14:45;;;;;;;7.13;6.43;;;14.30;99.90;;;;;;4959378;28;20207;-66
2022/06/07 02:17:13;;;;;;;7.72;5.90;;;14.30;99.90;;;;;;4956468;28;20215;-66
2022/06/07 02:19:40;;;;;;;6.80;6.10;;;14.30;99.90;;;;;;4980648;28;20849;-66
2022/06/07 02:22:07;;;;;;;8.75;6.28;;;14.30;99.90;;;;;;4981132;28;20223;-66
2022/06/07 02:24:34;;;;;;;7.68;6.32;;;14.20;99.90;;;;;;4974706;28;20206;-65
2022/06/07 02:27:05;;;;;;;6.75;6.05;;;14.30;99.90;;;;;;4977312;28;20210;-66
2022/06/07 02:29:36;;;;;;;6.10;5.53;;;14.30;99.90;;;;;;4972991;28;20207;-66
2022/06/07 02:32:06;;;;;;;6.30;5.70;;;14.20;99.90;;;;;;4972379;28;20225;-66
2022/06/07 02:34:35;;;;;;;6.03;5.53;;;14.30;99.90;;;;;;4990935;28;20206;-66
2022/06/07 02:37:05;;;;;;;7.45;5.93;;;12.90;99.90;;;;;;4971168;28;20716;-66
2022/06/07 02:39:32;;;;;;;7.85;5.85;;;14.30;99.90;;;;;;4977467;28;20704;-65
2022/06/07 02:42:01;;;;;;;6.72;6.07;;;14.30;99.90;;;;;;4984617;28;20230;-66
2022/06/07 02:44:28;;;;;;;8.73;6.05;;;14.30;99.90;;;;;;4978736;28;20235;-66
2022/06/07 02:46:56;;;;;;;6.28;5.68;;;14.30;99.90;;;;;;4984721;28;20214;-66
2022/06/07 02:49:23;;;;;;;6.35;5.75;;;14.30;99.90;;;;;;4970624;28;20199;-65
2022/06/07 02:51:49;;;;;;;8.10;5.43;;;14.30;99.90;;;;;;4956891;28;20231;-66
2022/06/07 02:54:16;;;;;;;6.28;5.43;;;14.30;99.90;;;;;;4973213;28;20233;-66
2022/06/07 02:56:43;;;;;;;6.13;5.53;;;14.30;99.90;;;;;;4964438;28;20257;-66
2022/06/07 02:59:10;;;;;;;6.20;5.60;;;14.30;99.90;;;;;;4987630;28;21102;-66
2022/06/07 03:01:37;;;;;;;7.35;5.97;;;14.20;99.90;;;;;;4975087;28;20735;-66
2022/06/07 03:04:05;;;;;;;7.20;5.95;;;14.10;99.90;;;;;;4971798;28;21017;-66
2022/06/07 03:06:32;;;;;;;8.50;5.75;;;14.30;99.90;;;;;;4990720;28;20203;-66
2022/06/07 03:08:59;;;;;;;6.07;5.38;;;14.30;99.90;;;;;;4943232;28;20221;-66
2022/06/07 03:11:26;;;;;;;6.43;5.82;;;14.30;99.90;;;;;;4979629;28;20574;-66
2022/06/07 03:13:52;;;;;;;8.23;5.72;;;14.20;99.90;;;;;;4989401;28;20211;-66
2022/06/07 03:16:19;;;;;;;9.23;6.38;;;14.20;99.90;;;;;;4969289;28;20202;-66
2022/06/07 03:18:46;;;;;;;6.85;6.15;;;14.20;99.90;;;;;;4988351;28;20202;-66
2022/06/07 03:21:14;;;;;;;8.18;5.78;;;14.20;99.90;;;;;;4968912;28;20230;-66
2022/06/07 03:23:41;;;;;;;6.18;5.57;;;14.20;99.90;;;;;;4959891;28;20234;-66
2022/06/07 03:26:10;;;;;;;6.50;5.90;;;14.20;99.90;;;;;;4981843;28;20234;-65
2022/06/07 03:28:37;;;;;;;6.35;5.75;;;14.20;99.90;;;;;;4969443;28;20699;-66
2022/06/07 03:31:09;;;;;;;6.93;6.10;;;14.20;99.90;;;;;;4986309;28;20211;-66
2022/06/07 03:33:37;;;;;;;7.13;6.43;;;14.20;99.90;;;;;;4969139;28;20595;-67
2022/06/07 03:36:06;;;;;;;6.68;6.03;;;14.20;99.90;;;;;;4968415;28;20213;-66
2022/06/07 03:38:34;;;;;;;6.75;5.90;;;14.30;99.90;;;;;;4978115;28;20218;-66
2022/06/07 03:41:01;;;;;;;7.15;5.63;;;15.00;99.90;;;;;;4955659;28;20234;-66
2022/06/07 03:43:27;;;;;;;6.40;5.53;;;14.20;99.90;;;;;;4989712;28;20683;-66
2022/06/07 03:45:54;;;;;;;8.63;5.57;;;14.20;99.90;;;;;;4979330;28;20195;-65
2022/06/07 03:48:22;;;;;;;6.57;5.65;;;14.20;99.90;;;;;;4955584;28;21004;-66
2022/06/07 03:50:49;;;;;;;6.72;5.75;;;14.10;99.90;;;;;;4988082;28;20218;-65
2022/06/07 03:53:16;;;;;;;6.38;5.63;;;14.20;99.90;;;;;;4940687;28;20207;-66
2022/06/07 03:55:47;;;;;;;7.38;6.20;;;14.10;99.90;;;;;;4959312;28;20215;-66
2022/06/07 03:58:15;;;;;;;6.03;5.43;;;14.20;99.90;;;;;;4973291;28;20758;-66
2022/06/07 04:00:44;;;;;;;5.63;5.13;;;14.20;99.90;;;;;;4973397;28;20203;-66
2022/06/07 04:03:11;;;;;;;7.20;6.07;;;14.20;99.90;;;;;;4963411;28;20574;-65
2022/06/07 04:05:43;;;;;;;6.25;5.65;;;14.20;99.90;;;;;;4965148;28;20235;-66
2022/06/07 04:08:12;;;;;;;6.20;5.63;;;14.20;99.90;;;;;;4951415;28;20242;-66
2022/06/07 04:10:47;;;;;;;6.80;5.57;;;14.70;99.90;;;;;;4964466;28;20890;-66
2022/06/07 04:13:15;;;;;;;7.05;6.35;;;14.20;99.90;;;;;;4989765;28;20202;-65
2022/06/07 04:15:42;;;;;;;6.05;5.45;;;14.20;99.90;;;;;;4975050;28;20217;-66
2022/06/07 04:18:09;;;;;;;7.38;6.10;;;14.20;99.90;;;;;;4990851;28;20676;-65
2022/06/07 04:20:36;;;;;;;6.82;5.85;;;14.30;99.90;;;;;;4957781;28;21428;-66
2022/06/07 04:23:04;;;;;;;6.97;5.80;;;14.20;99.90;;;;;;4969185;28;20309;-66
2022/06/07 04:25:31;;;;;;;7.82;5.97;;;14.20;99.90;;;;;;4974337;28;20210;-66
2022/06/07 04:27:59;;;;;;;7.07;5.82;;;14.20;99.90;;;;;;4953800;28;21497;-66
2022/06/07 04:30:26;;;;;;;8.75;6.78;;;;;;;;;;4977259;28;20205;-66
2022/06/07 04:32:53;;;;;;;6.80;6.20;;;14.20;99.90;;;;;;4983900;28;20989;-67
2022/06/07 04:35:20;;;;;;;7.00;5.95;;;14.30;99.90;;;;;;4976540;28;20206;-66
2022/06/07 04:37:47;;;;;;;8.05;6.60;;;14.20;99.90;;;;;;4957242;28;20213;-66
2022/06/07 04:40:14;;;;;;;7.88;6.93;;;14.20;99.90;;;;;;4971190;28;20207;-66
2022/06/07 04:42:41;;;;;;;8.70;6.90;;;14.30;99.90;;;;;;4972185;28;20879;-66
2022/06/07 04:45:13;;;;;;;10.95;7.18;;;14.30;99.90;;;;;;4987105;28;20672;-66
2022/06/07 04:47:41;;;;;;;9.75;7.10;;;14.30;99.90;;;;;;4964841;28;20208;-66
2022/06/07 04:50:10;;;;;;;10.13;6.82;;;14.30;99.90;;;;;;4970374;28;20239;-66
2022/06/07 04:52:36;;;;;;;10.73;7.85;;;14.30;99.90;;;;;;4969788;28;20234;-68
2022/06/07 04:55:04;;;;;;;8.60;7.70;;;14.30;99.90;;;;;;4960088;28;20207;-67
2022/06/07 04:57:31;;;;;;;8.27;7.18;;;14.30;99.90;;;;;;4969010;28;20215;-67
2022/06/07 04:59:58;;;;;;;8.65;7.45;;;14.30;99.90;;;;;;4989548;28;20203;-67
2022/06/07 05:02:26;;;;;;;8.80;7.90;;;14.40;99.90;;;;;;4976741;28;20241;-68
2022/06/07 05:04:56;;;;;;;8.50;7.53;;;14.40;99.90;;;;;;4984074;28;20223;-66
2022/06/07 05:07:23;;;;;;;9.55;7.60;;;12.50;99.90;;;;;;4949834;28;20222;-67
2022/06/07 05:09:49;;;;;;;7.93;7.07;;;14.40;99.90;;;;;;4953094;28;21923;-67
2022/06/07 05:12:16;;;;;;;10.65;7.65;;;14.40;99.90;;;;;;4977920;28;20213;-67
2022/06/07 05:14:44;;;;;;;9.20;7.85;;;14.40;99.90;;;;;;4962060;28;20222;-66
2022/06/07 05:17:11;;;;;;;9.88;7.70;;;14.40;99.90;;;;;;4984675;28;20203;-67
2022/06/07 05:19:40;;;;;;;8.70;7.80;;;;;;;;;;4980384;28;20203;-67
2022/06/07 05:22:06;;;;;;;9.60;8.20;;;14.50;99.90;;;;;;4977469;28;20629;-66
2022/06/07 05:24:34;;;;;;;10.88;8.45;;;14.50;99.90;;;;;;4948293;28;20203;-68
2022/06/07 05:27:03;;;;;;;14.45;9.13;;;14.50;99.90;;;;;;4971372;28;20286;-68
2022/06/07 05:29:35;;;;;;;9.02;8.10;;;14.40;99.90;;;;;;4966466;28;20219;-66
2022/06/07 05:32:02;;;;;;;10.20;8.55;;;14.50;99.90;;;;;;4973420;28;20222;-67
2022/06/07 05:34:29;;;;;;;10.88;8.52;;;14.60;99.90;;;;;;4977036;28;20210;-67
2022/06/07 05:36:57;;;;;;;9.80;8.02;;;14.60;99.90;;;;;;4950663;28;20317;-67
2022/06/07 05:39:26;;;;;;;11.82;8.35;;;14.60;99.90;;;;;;4962643;28;20215;-67
2022/06/07 05:41:53;;;;;;;10.38;8.45;;;14.60;99.90;;;;;;4972199;28;20222;-67
2022/06/07 05:44:21;;;;;;;12.27;8.52;;;14.60;99.90;;;;;;4979015;28;20207;-66
2022/06/07 05:46:48;;;;;;;11.65;8.38;;;14.70;99.90;;;;;;4955735;28;20215;-67
2022/06/07 05:49:16;;;;;;;9.40;8.30;;;14.70;99.90;;;;;;4985284;28;20206;-66
2022/06/07 05:51:44;;;;;;;8.77;7.07;;;14.90;99.90;;;;;;4967062;28;20256;-66
2022/06/07 05:54:13;;;;;;;9.38;8.13;;;14.70;99.90;;;;;;4980694;28;20758;-66
2022/06/07 05:56:41;;;;;;;11.43;8.73;;;14.80;99.90;;;;;;4962477;28;20790;-68
2022/06/07 05:59:07;;;;;;;10.07;8.18;;;14.70;99.90;;;;;;4976327;28;20215;-67
2022/06/07 06:01:35;;;;;;;10.00;8.40;;;14.80;99.90;;;;;;4961844;28;20218;-66
2022/06/07 06:04:03;;;;;;;10.75;8.00;;;14.90;99.90;;;;;;4989374;28;20206;-67
2022/06/07 06:06:31;;;;;;;9.57;7.78;;;14.90;99.90;;;;;;4970811;28;20203;-66
2022/06/07 06:11:44;;;;;;;14.13;7.75;;;15.00;99.90;;;;;;4966980;28;20293;-66
2022/06/07 06:14:11;;;;;;;13.25;8.75;;;15.00;99.90;;;;;;4970669;28;20579;-66
2022/06/07 06:16:38;;;;;;;11.82;8.35;;;15.20;99.90;;;;;;4982602;28;20207;-66
2022/06/07 06:19:06;;;;;;;9.63;7.75;;;15.00;99.90;;;;;;4999825;28;20663;-66
2022/06/07 06:21:35;;;;;;;10.73;8.73;;;15.10;99.90;;;;;;4998829;28;21265;-67
2022/06/07 06:24:02;;;;;;;10.80;8.10;;;15.10;99.90;;;;;;4987499;28;20208;-68
2022/06/07 06:26:29;;;;;;;13.18;8.70;;;15.10;99.90;;;;;;4973382;28;20814;-66
2022/06/07 06:28:58;;;;;;;12.20;8.48;;;15.10;99.90;;;;;;4982015;28;30937;-66
2022/06/07 06:31:25;;;;;;;9.95;8.10;;;15.10;99.90;;;;;;5000694;28;20606;-67
2022/06/07 06:33:54;;;;;;;12.43;7.72;;;15.20;99.90;;;;;;4981579;28;20230;-67
2022/06/07 06:36:23;;;;;;;12.48;8.70;;;15.30;99.90;;;;;;4988713;28;20210;-67
2022/06/07 06:38:50;;;;;;;10.25;8.43;;;15.30;99.90;;;;;;4993784;28;20230;-66
2022/06/07 06:41:18;;;;;;;11.73;8.10;;;15.30;99.90;;;;;;4954453;28;20229;-66
2022/06/07 06:43:45;;;;;;;11.57;9.13;;;15.20;99.90;;;;;;4976165;28;20234;-67
2022/06/07 06:46:16;;;;;;;12.68;9.23;;;15.20;99.90;;;;;;4985424;28;20727;-67
2022/06/07 06:48:44;;;;;;;12.32;9.90;;;15.20;99.90;;;;;;4970702;28;20209;-66
2022/06/07 06:51:13;;;;;;;14.35;10.68;;;15.20;99.90;;;;;;4996557;28;20213;-66
2022/06/07 06:53:42;;;;;;;14.38;9.45;;;15.20;99.90;;;;;;4984866;28;20222;-66
2022/06/07 06:56:11;;;;;;;13.18;10.10;;;11.10;99.90;;;;;;4975495;28;20213;-66
2022/06/07 06:58:38;;;;;;;12.32;9.98;;;15.20;99.90;;;;;;4988135;28;20273;-66
2022/06/07 07:01:07;;;;;;;15.05;11.10;;;15.20;99.90;;;;;;4963631;28;20226;-66
2022/06/07 07:03:37;;;;;;;14.18;10.93;;;15.20;99.90;;;;;;4987807;28;20995;-66
2022/06/07 07:06:05;;;;;;;13.05;10.68;;;15.20;99.90;;;;;;5006141;28;20209;-66
2022/06/07 07:08:33;;;;;;;14.48;10.20;;;15.20;99.90;;;;;;4987669;28;20248;-66
2022/06/07 07:11:10;;;;;;;11.63;9.70;;;15.20;99.90;;;;;;4984191;28;20325;-65
2022/06/07 07:13:38;;;;;;;14.02;10.02;;;15.10;99.90;;;;;;5002437;28;20288;-65
2022/06/07 07:16:07;;;;;;;13.93;10.05;;;13.70;99.90;;;;;;4987748;28;20214;-66
2022/06/07 07:18:36;;;;;;;12.98;9.65;;;15.10;99.90;;;;;;4990404;28;21000;-66
2022/06/07 07:21:04;;;;;;;14.55;8.93;;;15.20;99.90;;;;;;4985248;28;20226;-65
2022/06/07 07:23:32;;;;;;;13.18;8.48;;;14.10;99.90;;;;;;4982281;28;21168;-65
2022/06/07 07:26:03;;;;;;;10.90;8.27;;;15.10;99.90;;;;;;4989399;28;20233;-65
2022/06/07 07:28:30;;;;;;;10.82;9.35;;;15.10;99.90;;;;;;4953948;28;20937;-65
2022/06/07 07:31:01;;;;;;;14.18;10.15;;;15.10;99.90;;;;;;4961330;28;20298;-65
2022/06/07 07:33:28;;;;;;;12.48;9.30;;;15.10;99.90;;;;;;4999972;28;20198;-66
2022/06/07 07:35:57;;;;;;;13.55;8.93;;;15.00;99.90;;;;;;4992248;28;20215;-66
2022/06/07 07:38:24;;;;;;;13.38;9.23;;;14.90;99.90;;;;;;4988393;28;20232;-66
2022/06/07 07:40:52;;;;;;;12.18;9.43;;;15.00;99.90;;;;;;5000103;28;20218;-65
2022/06/07 07:43:19;;;;;;;12.32;8.95;;;14.70;99.90;;;;;;4962022;28;20376;-66
2022/06/07 07:45:46;;;;;;;17.08;9.30;;;14.00;99.90;;;;;;4983496;28;20220;-65
2022/06/07 07:48:14;;;;;;;14.10;9.32;;;14.80;99.90;;;;;;4998317;28;20571;-66
2022/06/07 07:50:41;;;;;;;12.93;8.57;;;14.80;99.90;;;;;;4992916;28;20224;-66
2022/06/07 07:53:09;;;;;;;12.35;9.38;;;14.80;99.90;;;;;;4969872;28;20204;-65
2022/06/07 07:55:36;;;;;;;12.48;8.32;;;14.90;99.90;;;;;;5001002;28;20255;-65
2022/06/07 07:58:03;;;;;;;11.88;8.63;;;14.90;99.90;;;;;;4983639;28;20218;-65
2022/06/07 08:00:31;;;;;;;11.65;8.88;;;14.90;99.90;;;;;;4982895;28;20723;-65
2022/06/07 08:02:58;;;;;;;10.57;8.65;;;14.90;99.90;;;;;;4988102;28;20358;-64
2022/06/07 08:05:25;;;;;;;9.23;7.85;;;14.80;99.90;;;;;;5004600;28;20359;-65
2022/06/07 08:07:52;;;;;;;10.15;7.63;;;14.80;99.90;;;;;;4998200;28;20264;-65
2022/06/07 08:10:20;;;;;;;8.43;7.25;;;14.80;99.90;;;;;;4999602;28;20230;-65
2022/06/07 08:12:47;;;;;;;10.95;7.85;;;14.80;99.90;;;;;;5009889;28;20220;-65
2022/06/07 08:15:15;;;;;;;10.65;7.57;;;14.90;99.90;;;;;;4975737;28;20202;-65
2022/06/07 08:17:42;;;;;;;9.57;6.97;;;14.80;99.90;;;;;;4997147;28;20599;-65
2022/06/07 08:20:11;;;;;;;9.13;7.30;;;14.80;99.90;;;;;;4991914;28;20202;-66
2022/06/07 08:22:38;;;;;;;11.60;7.80;;;14.70;99.90;;;;;;4988442;28;20217;-65
2022/06/07 08:25:06;;;;;;;10.82;7.03;;;14.80;99.90;;;;;;4986839;28;20222;-65
2022/06/07 08:27:34;;;;;;;7.80;6.18;;;14.70;99.90;;;;;;4982074;28;20243;-66
2022/06/07 08:30:01;;;;;;;11.13;6.93;;;14.80;99.90;;;;;;4993669;28;20203;-65
2022/06/07 08:32:27;;;;;;;10.18;6.82;;;14.80;99.90;;;;;;4990192;28;20214;-65
2022/06/07 08:37:38;;;;;;;10.65;6.18;;;14.80;99.90;;;;;;5002801;28;20259;-65
2022/06/07 08:40:10;;;;;;;9.68;6.57;;;14.80;99.90;;;;;;4975037;28;26260;-66
2022/06/07 08:42:48;;;;;;;10.07;7.32;;;14.80;99.90;;;;;;4987534;28;20222;-65
2022/06/07 08:45:18;;;;;;;8.40;7.15;;;14.80;99.90;;;;;;4984635;28;20198;-65
2022/06/07 08:47:49;;;;;;;10.55;7.72;;;14.80;99.90;;;;;;4970438;28;20217;-66
2022/06/07 08:50:21;;;;;;;10.18;6.90;;;14.90;99.90;;;;;;5000807;28;20221;-65
2022/06/07 08:52:50;;;;;;;11.40;7.40;;;15.50;99.90;;;;;;4973170;28;20222;-68
2022/06/07 08:55:20;;;;;;;15.35;7.55;;;14.70;99.90;;;;;;4977613;28;20226;-65
2022/06/07 08:57:55;;;;;;;10.05;7.50;;;14.80;99.90;;;;;;4984902;28;20212;-65
2022/06/07 09:00:26;;;;;;;10.38;7.65;;;15.80;99.90;;;;;;4971852;28;20256;-65
2022/06/07 09:03:21;;;;;;;9.02;6.90;;;14.60;99.90;;;;;;5000505;28;20229;-65
2022/06/07 09:05:53;;;;;;;11.43;6.95;;;14.70;99.90;;;;;;4981024;28;20234;-65
2022/06/07 09:08:20;;;;;;;7.75;6.57;;;;;;;;;;4989082;28;20297;-65
2022/06/07 09:13:36;;;;;;;10.07;7.38;;;14.80;99.90;;;;;;4965411;28;20218;-65
2022/06/07 09:16:05;;;;;;;10.80;6.88;;;14.70;99.90;;;;;;4987204;28;20488;-64
2022/06/07 09:18:33;;;;;;;9.20;6.40;;;14.70;99.90;;;;;;4990645;28;20466;-65
2022/06/07 09:21:07;;;;;;;8.45;6.05;;;16.50;99.90;;;;;;4990642;28;20226;-65
2022/06/07 09:23:43;;;;;;;6.13;5.40;;;14.60;99.90;;;;;;5007342;28;20282;-64
2022/06/07 09:26:16;;;;;;;6.65;5.50;;;14.50;99.90;;;;;;4969070;28;20205;-64
2022/06/07 09:28:47;;;;;;;8.38;5.60;;;14.30;99.90;;;;;;4994002;28;20207;-64
2022/06/07 09:31:16;;;;;;;8.20;6.32;;;14.30;99.90;;;;;;4996406;28;20206;-64
2022/06/07 09:33:51;;;;;;;7.72;5.97;;;14.30;99.90;;;;;;4990975;28;20222;-65
2022/06/07 09:36:22;;;;;;;9.60;6.05;;;14.40;99.90;;;;;;4987124;28;20800;-64
2022/06/07 09:38:53;;;;;;;7.70;6.38;;;14.30;99.90;;;;;;4991161;28;20226;-65
2022/06/07 09:41:40;;;;;;;9.23;6.32;;;14.30;99.90;;;;;;4988266;28;20221;-65
2022/06/07 09:44:23;;;;;;;9.75;6.63;;;14.50;99.90;;;;;;5009838;28;20232;-65
2022/06/07 09:46:58;;;;;;;7.95;6.50;;;14.60;99.90;;;;;;5003370;28;20309;-64
2022/06/07 09:49:27;;;;;;;9.77;7.53;;;14.60;99.90;;;;;;4968101;28;20244;-65
2022/06/07 09:51:54;;;;;;;9.70;7.38;;;14.70;99.90;;;;;;4997337;28;20562;-65
2022/06/07 09:54:23;;;;;;;8.38;6.78;;;14.90;99.90;;;;;;5003031;28;20260;-64
2022/06/07 09:57:08;;;;;;;9.90;7.82;;;15.00;99.90;;;;;;4976500;28;20431;-65
2022/06/07 09:59:44;;;;;;;12.00;8.40;;;15.40;99.90;;;;;;4977531;28;20230;-64
2022/06/07 10:02:43;;;;;;;10.52;8.73;;;15.00;99.90;;;;;;4986440;28;20248;-64
2022/06/07 10:05:18;;;;;;;14.55;9.07;;;15.00;99.90;;;;;;4967089;28;20234;-65
2022/06/07 10:07:52;;;;;;;16.02;9.73;;;14.80;99.90;;;;;;4992161;28;20407;-64
2022/06/07 10:10:26;;;;;;;13.30;9.55;;;14.90;99.90;;;;;;5003515;28;20229;-65
2022/06/07 10:13:05;;;;;;;13.43;9.98;;;14.90;99.90;;;;;;4985301;28;21168;-65
2022/06/07 10:15:40;;;;;;;12.90;9.18;;;14.90;99.90;;;;;;5008871;28;20193;-65
2022/06/07 10:18:19;;;;;;;13.55;10.38;;;14.70;99.90;;;;;;5014868;28;20197;-65
2022/06/07 10:21:01;;;;;;;17.33;9.65;;;14.60;99.90;;;;;;5003018;28;20202;-65
2022/06/07 10:23:44;;;;;;;13.85;10.18;;;14.70;99.90;;;;;;4994042;28;20217;-65
2022/06/07 10:26:23;;;;;;;14.65;10.13;;;14.70;99.90;;;;;;5006157;28;20676;-65
2022/06/07 10:29:04;;;;;;;10.18;8.63;;;14.60;99.90;;;;;;4988912;28;20723;-65
2022/06/07 10:31:41;;;;;;;13.05;8.75;;;14.50;99.90;;;;;;5005735;28;20705;-65
2022/06/07 10:34:12;;;;;;;9.38;8.32;;;14.50;99.90;;;;;;4977594;28;20868;-65
2022/06/07 10:36:44;;;;;;;13.15;9.65;;;;;;;;;;4996697;28;20195;-65
2022/06/07 10:39:25;;;;;;;13.13;9.13;;;14.70;99.90;;;;;;5003052;28;20236;-66
2022/06/07 10:42:01;;;;;;;10.73;7.82;;;14.70;99.90;;;;;;5002108;28;20543;-65
2022/06/07 10:44:33;;;;;;;9.32;7.40;;;14.80;99.90;;;;;;4997958;28;20221;-66
2022/06/07 10:47:12;;;;;;;11.68;7.15;;;14.60;99.90;;;;;;5002427;28;20408;-66
2022/06/07 10:49:47;;;;;;;8.05;6.95;;;14.60;99.90;;;;;;4991378;28;20214;-66
2022/06/07 10:52:31;;;;;;;8.18;6.68;;;14.70;99.90;;;;;;5001507;28;20201;-64
2022/06/07 10:55:06;;;;;;;9.82;7.65;;;14.80;99.90;;;;;;4996278;28;20214;-64
2022/06/07 10:57:41;;;;;;;9.02;7.47;;;14.80;99.90;;;;;;5002036;28;20618;-64
2022/06/07 11:00:30;;;;;;;11.27;8.05;;;14.90;99.90;;;;;;5005294;28;20213;-64
2022/06/07 11:03:04;;;;;;;12.55;8.40;;;15.00;99.90;;;;;;4971710;28;21082;-65
2022/06/07 11:11:12;;;;;;;14.60;9.10;;;14.90;99.90;;;;;;4993372;28;20867;-64
2022/06/07 11:13:49;;;;;;;10.63;9.27;;;13.20;99.90;;;;;;4979784;28;20206;-65
2022/06/07 11:16:22;;;;;;;14.43;9.05;;;14.90;99.90;;;;;;4979109;28;20202;-65
2022/06/07 11:18:51;;;;;;;14.02;9.25;;;14.80;99.90;;;;;;4981862;28;20230;-65
2022/06/07 11:21:27;;;;;;;12.50;9.27;;;14.80;99.90;;;;;;4971084;28;20646;-66
2022/06/07 11:24:05;;;;;;;11.27;8.38;;;14.80;99.90;;;;;;4972399;28;20235;-65
2022/06/07 11:26:52;;;;;;;14.70;9.05;;;14.70;99.90;;;;;;4991491;28;20205;-65
2022/06/07 11:29:21;;;;;;;12.88;9.38;;;14.70;99.90;;;;;;4974357;28;20217;-65
2022/06/07 11:31:48;;;;;;;14.75;9.95;;;14.70;99.90;;;;;;4984845;28;20351;-65
2022/06/07 11:34:25;;;;;;;11.70;9.27;;;14.70;99.90;;;;;;4985840;28;20260;-65
2022/06/07 11:36:56;;;;;;;12.38;9.85;;;14.50;99.90;;;;;;4987436;28;20241;-64
2022/06/07 11:39:30;;;;;;;16.77;9.55;;;14.70;99.90;;;;;;4978046;28;20757;-65
2022/06/07 11:41:59;;;;;;;15.10;9.68;;;14.80;99.90;;;;;;4997441;28;20206;-64
2022/06/07 11:45:17;;;;;;;16.00;9.75;;;14.00;99.90;;;;;;4994769;28;21001;-66
2022/06/07 11:48:05;;;;;;;15.50;9.90;;;14.80;99.90;;;;;;4973546;28;20638;-64
2022/06/07 11:50:42;;;;;;;14.27;10.68;;;14.80;99.90;;;;;;4975913;28;20206;-64
2022/06/07 11:53:29;;;;;;;15.93;9.32;;;14.90;99.90;;;;;;4979715;28;20202;-65
2022/06/07 11:56:03;;;;;;;15.90;9.98;;;14.80;99.90;;;;;;4972297;28;20212;-65
2022/06/07 11:58:56;;;;;;;12.70;9.90;;;14.70;99.90;;;;;;4999642;28;20480;-66
2022/06/07 12:01:39;;;;;;;16.98;10.38;;;16.00;99.90;;;;;;4978555;28;20202;-65
2022/06/07 12:04:22;;;;;;;16.77;10.32;;;14.70;99.90;;;;;;4990887;28;20222;-66
2022/06/07 12:06:51;;;;;;;15.70;10.70;;;14.80;99.90;;;;;;4968211;28;20225;-65
2022/06/07 12:09:19;;;;;;;14.63;10.55;;;14.80;99.90;;;;;;4987626;28;20233;-63
2022/06/07 12:11:46;;;;;;;14.77;10.55;;;14.90;99.90;;;;;;4977233;28;20233;-63
2022/06/07 12:14:37;;;;;;;12.80;10.48;;;13.40;99.90;;;;;;4996983;28;20206;-63
2022/06/07 12:17:19;;;;;;;14.60;10.05;;;15.20;99.90;;;;;;4983445;28;20206;-64
2022/06/07 12:19:47;;;;;;;13.55;10.30;;;15.10;99.90;;;;;;4985156;28;20213;-64
2022/06/07 12:22:18;;;;;;;13.80;9.48;;;15.10;99.90;;;;;;4967827;28;20230;-66
2022/06/07 12:24:49;;;;;;;12.32;8.32;;;15.10;99.90;;;;;;4994425;28;20691;-65
2022/06/07 12:27:28;;;;;;;11.88;8.88;;;14.90;99.90;;;;;;4966946;28;22304;-65
2022/06/07 12:30:01;;;;;;;12.85;8.88;;;14.70;99.90;;;;;;4994192;28;20206;-65
2022/06/07 12:32:32;;;;;;;14.02;8.63;;;14.90;99.90;;;;;;4973151;28;20222;-64
2022/06/07 12:35:24;;;;;;;15.48;9.05;;;14.90;99.90;;;;;;4976457;28;20210;-64
2022/06/07 12:37:57;;;;;;;12.13;8.35;;;14.90;99.90;;;;;;4958617;28;20240;-65
2022/06/07 12:40:28;;;;;;;18.88;9.10;;;14.90;99.90;;;;;;4992927;28;20583;-65
2022/06/07 12:42:55;;;;;;;16.85;9.10;;;14.90;99.90;;;;;;4967215;28;20206;-64
2022/06/07 12:45:25;;;;;;;19.15;8.73;;;15.00;99.90;;;;;;5005193;28;20230;-64
2022/06/07 12:47:57;;;;;;;14.70;8.65;;;15.20;99.90;;;;;;4986303;28;20202;-64
2022/06/07 12:50:31;;;;;;;12.98;9.68;;;15.30;99.90;;;;;;4974531;28;20209;-64
2022/06/07 12:53:00;;;;;;;14.55;8.65;;;15.40;99.90;;;;;;4988194;28;20567;-64
2022/06/07 12:55:29;;;;;;;11.55;8.85;;;15.40;99.90;;;;;;5002451;28;20317;-64
2022/06/07 12:57:58;;;;;;;18.02;8.52;;;15.40;99.90;;;;;;5040086;22;20655;-63
2022/06/07 13:00:27;;;;;;;12.05;8.85;;;15.40;99.90;;;;;;5006826;28;20212;-65
2022/06/07 13:03:01;;;;;;;13.40;8.90;;;15.50;99.90;;;;;;5000682;28;20216;-64
2022/06/07 13:05:33;;;;;;;11.05;7.80;;;15.50;99.90;;;;;;4998103;28;20226;-64
2022/06/07 13:08:04;;;;;;;12.80;8.18;;;15.50;99.90;;;;;;5023091;28;20197;-65
2022/06/07 13:10:34;;;;;;;15.38;8.13;;;15.40;99.90;;;;;;4974302;28;20314;-65
2022/06/07 13:13:03;;;;;;;10.90;7.07;;;15.60;99.90;;;;;;4983687;28;20207;-65
2022/06/07 13:15:32;;;;;;;8.10;6.45;;;15.40;99.90;;;;;;4991262;28;20217;-66
2022/06/07 13:18:04;;;;;;;8.60;6.50;;;15.40;99.90;;;;;;4990248;28;20203;-65
2022/06/07 13:20:35;;;;;;;10.57;6.28;;;15.50;99.90;;;;;;4978334;28;20538;-65